ABR1948 LGRP-UUDD
Flight info
| Callsign | ABR1948 |
|---|---|
| Flight time | N/A |
| Altitude | 35000 |
| Route | SOTIV UN136 KFK DCT BAG/N0456F350 UW71 CRM UG901 BALUM G901 INDIM/K0843F370 G901 LEKPI L91 KANON T748 PEPOR T611 TUKMO N50 OLOPI OLOPI3L |
| Aircraft | B722/M-SDFGHRWY/C |
Departure
| Time | 2026-04-27 16:03 |
|---|---|
| Airport | Rhodes International Airport "Diagoras" (LGRP) |
Arrival
| Time | N/A |
|---|---|
| Airport | Domodedovo International Airport (UUDD) |
| Time | Latitude | Longitude | Altitude | Speed | Heading |
|---|---|---|---|---|---|
| 2026-04-27 15:42 | 36.40426 | 28.08929 | 36 ft | 0 kts | 295° |
| 2026-04-27 16:00 | 36.40429 | 28.08921 | 36 ft | 4 kts | 282° |
| 2026-04-27 16:00 | 36.40402 | 28.08938 | 37 ft | 10 kts | 81° |
| 2026-04-27 16:00 | 36.40475 | 28.09027 | 36 ft | 20 kts | 37° |
| 2026-04-27 16:01 | 36.40638 | 28.09147 | 32 ft | 32 kts | 31° |
| 2026-04-27 16:01 | 36.40759 | 28.09379 | 28 ft | 33 kts | 71° |
| 2026-04-27 16:01 | 36.40839 | 28.09662 | 25 ft | 35 kts | 70° |
| 2026-04-27 16:01 | 36.40924 | 28.09947 | 24 ft | 35 kts | 70° |
| 2026-04-27 16:02 | 36.41005 | 28.10227 | 25 ft | 21 kts | 70° |
| 2026-04-27 16:02 | 36.41013 | 28.10293 | 25 ft | 1 kts | 62° |
| 2026-04-27 16:02 | 36.41021 | 28.10290 | 25 ft | 1 kts | 287° |
| 2026-04-27 16:02 | 36.40994 | 28.10192 | 25 ft | 36 kts | 251° |
| 2026-04-27 16:03 | 36.40818 | 28.09584 | 26 ft | 110 kts | 250° |
| 2026-04-27 16:03 | 36.40494 | 28.08467 | 157 ft | 151 kts | 250° |
| 2026-04-27 16:03 | 36.40126 | 28.07233 | 682 ft | 163 kts | 249° |
| 2026-04-27 16:03 | 36.39710 | 28.05877 | 1337 ft | 175 kts | 250° |
| 2026-04-27 16:04 | 36.39306 | 28.04498 | 2292 ft | 170 kts | 249° |
| 2026-04-27 16:04 | 36.38885 | 28.03130 | 3010 ft | 178 kts | 249° |
| 2026-04-27 16:04 | 36.38425 | 28.01654 | 3652 ft | 191 kts | 249° |
| 2026-04-27 16:04 | 36.37942 | 28.00104 | 4438 ft | 199 kts | 249° |
| 2026-04-27 16:05 | 36.37412 | 27.98408 | 4948 ft | 223 kts | 249° |
| 2026-04-27 16:05 | 36.36845 | 27.96591 | 5698 ft | 236 kts | 249° |
| 2026-04-27 16:05 | 36.36246 | 27.94673 | 6635 ft | 246 kts | 249° |
| 2026-04-27 16:05 | 36.35624 | 27.92682 | 7646 ft | 253 kts | 249° |
| 2026-04-27 16:06 | 36.34992 | 27.90658 | 8646 ft | 259 kts | 249° |
| 2026-04-27 16:06 | 36.34353 | 27.88587 | 9659 ft | 262 kts | 252° |
| 2026-04-27 16:06 | 36.34295 | 27.86345 | 10604 ft | 268 kts | 284° |
| 2026-04-27 16:06 | 36.35215 | 27.84346 | 11516 ft | 277 kts | 313° |
| 2026-04-27 16:07 | 36.36865 | 27.83124 | 12361 ft | 290 kts | 340° |
| 2026-04-27 16:07 | 36.38938 | 27.82929 | 12802 ft | 319 kts | 6° |
| 2026-04-27 16:07 | 36.41094 | 27.83905 | 12928 ft | 346 kts | 30° |
| 2026-04-27 16:07 | 36.42864 | 27.85987 | 12968 ft | 360 kts | 54° |
| 2026-04-27 16:08 | 36.43877 | 27.88870 | 12978 ft | 366 kts | 79° |
| 2026-04-27 16:08 | 36.43905 | 27.91993 | 13056 ft | 370 kts | 103° |
| 2026-04-27 16:08 | 36.42893 | 27.94925 | 13571 ft | 371 kts | 128° |
| 2026-04-27 16:08 | 36.41406 | 27.97545 | 14144 ft | 378 kts | 118° |
| 2026-04-27 16:09 | 36.40743 | 28.00696 | 14739 ft | 385 kts | 95° |
| 2026-04-27 16:09 | 36.40179 | 28.07330 | 15977 ft | 391 kts | 99° |
| 2026-04-27 16:09 | 36.40246 | 28.10714 | 16524 ft | 396 kts | 76° |
| 2026-04-27 16:10 | 36.42450 | 28.16703 | 17669 ft | 398 kts | 57° |
| 2026-04-27 16:10 | 36.45532 | 28.22391 | 18894 ft | 400 kts | 54° |
| 2026-04-27 16:11 | 36.47114 | 28.25211 | 19393 ft | 403 kts | 54° |
| 2026-04-27 16:11 | 36.49202 | 28.31667 | 20196 ft | 411 kts | 73° |
| 2026-04-27 16:12 | 36.51342 | 28.38320 | 21126 ft | 416 kts | 64° |
| 2026-04-27 16:12 | 36.52556 | 28.41583 | 21713 ft | 420 kts | 64° |
| 2026-04-27 16:12 | 36.54951 | 28.48213 | 22872 ft | 425 kts | 56° |
| 2026-04-27 16:13 | 36.56905 | 28.50964 | 23377 ft | 425 kts | 39° |
| 2026-04-27 16:13 | 36.61427 | 28.55678 | 24408 ft | 431 kts | 37° |
| 2026-04-27 16:13 | 36.63798 | 28.57989 | 24914 ft | 434 kts | 35° |
| 2026-04-27 16:14 | 36.68604 | 28.62520 | 25887 ft | 440 kts | 35° |
| 2026-04-27 16:14 | 36.73383 | 28.67096 | 26757 ft | 446 kts | 36° |
| 2026-04-27 16:15 | 36.78369 | 28.71824 | 27599 ft | 451 kts | 35° |
| 2026-04-27 16:15 | 36.83398 | 28.76586 | 28391 ft | 456 kts | 35° |
| 2026-04-27 16:16 | 36.88416 | 28.81348 | 29116 ft | 461 kts | 36° |
| 2026-04-27 16:16 | 36.93161 | 28.85848 | 29711 ft | 467 kts | 36° |
| 2026-04-27 16:17 | 36.98347 | 28.90763 | 30293 ft | 474 kts | 36° |
| 2026-04-27 16:17 | 37.03629 | 28.95770 | 30787 ft | 481 kts | 36° |
| 2026-04-27 16:18 | 37.08991 | 29.00855 | 31241 ft | 489 kts | 36° |
| 2026-04-27 16:18 | 37.14403 | 29.05989 | 31711 ft | 496 kts | 37° |
| 2026-04-27 16:19 | 37.17157 | 29.08615 | 31977 ft | 498 kts | 37° |
| 2026-04-27 16:19 | 37.19884 | 29.11228 | 32246 ft | 500 kts | 37° |
| 2026-04-27 16:20 | 37.28146 | 29.19191 | 33242 ft | 499 kts | 37° |
| 2026-04-27 16:20 | 37.30870 | 29.21823 | 33562 ft | 498 kts | 37° |
| 2026-04-27 16:20 | 37.36319 | 29.27090 | 34185 ft | 497 kts | 37° |
| 2026-04-27 16:21 | 37.39072 | 29.29751 | 34491 ft | 496 kts | 37° |
| 2026-04-27 16:21 | 37.47192 | 29.37612 | 35026 ft | 502 kts | 36° |
| 2026-04-27 16:22 | 37.49980 | 29.40314 | 35054 ft | 507 kts | 36° |
| 2026-04-27 16:22 | 37.55585 | 29.45755 | 35054 ft | 518 kts | 36° |
| 2026-04-27 16:22 | 37.58458 | 29.48547 | 35051 ft | 523 kts | 36° |
| 2026-04-27 16:23 | 37.67107 | 29.56972 | 35044 ft | 523 kts | 37° |
| 2026-04-27 16:24 | 37.72794 | 29.62528 | 35044 ft | 521 kts | 37° |
| 2026-04-27 16:25 | 37.84255 | 29.73753 | 35045 ft | 521 kts | 37° |
| 2026-04-27 16:26 | 37.95710 | 29.85022 | 35046 ft | 522 kts | 37° |
| 2026-04-27 16:27 | 38.07171 | 29.96338 | 35046 ft | 524 kts | 37° |
| 2026-04-27 16:28 | 38.21499 | 30.10559 | 35045 ft | 525 kts | 37° |
| 2026-04-27 16:29 | 38.35852 | 30.24876 | 35045 ft | 524 kts | 37° |
| 2026-04-27 16:30 | 38.47295 | 30.36343 | 35045 ft | 524 kts | 37° |
| 2026-04-27 16:31 | 38.61567 | 30.50713 | 35045 ft | 525 kts | 37° |
| 2026-04-27 16:32 | 38.70158 | 30.59419 | 35045 ft | 525 kts | 39° |
| 2026-04-27 16:33 | 38.75250 | 30.66071 | 35052 ft | 525 kts | 50° |
| 2026-04-27 16:33 | 38.77511 | 30.69673 | 35061 ft | 524 kts | 52° |
| 2026-04-27 16:33 | 38.82002 | 30.77022 | 35300 ft | 521 kts | 52° |
| 2026-04-27 16:34 | 38.84251 | 30.80656 | 35613 ft | 517 kts | 52° |
| 2026-04-27 16:34 | 38.86459 | 30.84197 | 35833 ft | 514 kts | 51° |
| 2026-04-27 16:34 | 38.88713 | 30.87810 | 35964 ft | 515 kts | 51° |
| 2026-04-27 16:34 | 38.90919 | 30.91352 | 36043 ft | 516 kts | 51° |
| 2026-04-27 16:35 | 38.95380 | 30.98548 | 36221 ft | 517 kts | 51° |
| 2026-04-27 16:35 | 38.99840 | 31.05760 | 36443 ft | 517 kts | 51° |
| 2026-04-27 16:36 | 39.02073 | 31.09382 | 36518 ft | 518 kts | 51° |
| 2026-04-27 16:36 | 39.06524 | 31.16648 | 36628 ft | 520 kts | 51° |
| 2026-04-27 16:37 | 39.10989 | 31.23934 | 36795 ft | 520 kts | 51° |
| 2026-04-27 16:37 | 39.15462 | 31.31220 | 36952 ft | 521 kts | 51° |
| 2026-04-27 16:38 | 39.19954 | 31.38541 | 37087 ft | 521 kts | 51° |
| 2026-04-27 16:38 | 39.24452 | 31.45893 | 37108 ft | 524 kts | 51° |
| 2026-04-27 16:39 | 39.28944 | 31.53253 | 37101 ft | 527 kts | 51° |
| 2026-04-27 16:39 | 39.33485 | 31.60710 | 37098 ft | 526 kts | 51° |
| 2026-04-27 16:40 | 39.37967 | 31.68087 | 37097 ft | 525 kts | 51° |
| 2026-04-27 16:40 | 39.42445 | 31.75467 | 37091 ft | 524 kts | 51° |
| 2026-04-27 16:41 | 39.46937 | 31.82891 | 37082 ft | 523 kts | 51° |
| 2026-04-27 16:41 | 39.51393 | 31.90279 | 37074 ft | 522 kts | 51° |
| 2026-04-27 16:42 | 39.55830 | 31.97651 | 37070 ft | 522 kts | 51° |
| 2026-04-27 16:42 | 39.60260 | 32.05026 | 37072 ft | 521 kts | 51° |
| 2026-04-27 16:43 | 39.64700 | 32.12435 | 37072 ft | 521 kts | 51° |
| 2026-04-27 16:43 | 39.69125 | 32.19835 | 37073 ft | 522 kts | 51° |
| 2026-04-27 16:44 | 39.73582 | 32.27316 | 37073 ft | 523 kts | 51° |
| 2026-04-27 16:44 | 39.78025 | 32.34773 | 37073 ft | 524 kts | 51° |
| 2026-04-27 16:45 | 39.82462 | 32.42253 | 37073 ft | 525 kts | 51° |
| 2026-04-27 16:45 | 39.86898 | 32.49744 | 37073 ft | 526 kts | 51° |
| 2026-04-27 16:46 | 39.91331 | 32.57246 | 37072 ft | 525 kts | 51° |
| 2026-04-27 16:46 | 39.95778 | 32.64788 | 37072 ft | 525 kts | 51° |
| 2026-04-27 16:47 | 40.00222 | 32.72343 | 37071 ft | 524 kts | 52° |
| 2026-04-27 16:47 | 40.04614 | 32.79832 | 37072 ft | 523 kts | 52° |
| 2026-04-27 16:48 | 40.09015 | 32.87355 | 37072 ft | 523 kts | 52° |
| 2026-04-27 16:48 | 40.13407 | 32.94902 | 37072 ft | 522 kts | 52° |
| 2026-04-27 16:49 | 40.19928 | 33.06258 | 37073 ft | 521 kts | 51° |
| 2026-04-27 16:49 | 40.24247 | 33.13797 | 37073 ft | 520 kts | 51° |
| 2026-04-27 16:50 | 40.28578 | 33.21322 | 37071 ft | 519 kts | 50° |
| 2026-04-27 16:50 | 40.32912 | 33.28833 | 37071 ft | 518 kts | 50° |
| 2026-04-27 16:51 | 40.37228 | 33.36315 | 37073 ft | 517 kts | 50° |
| 2026-04-27 16:51 | 40.41555 | 33.43833 | 37073 ft | 517 kts | 50° |
| 2026-04-27 16:52 | 40.45851 | 33.51342 | 37071 ft | 517 kts | 50° |
| 2026-04-27 16:52 | 40.50172 | 33.58897 | 37073 ft | 516 kts | 50° |
| 2026-04-27 16:53 | 40.54463 | 33.66407 | 37071 ft | 517 kts | 51° |
| 2026-04-27 16:53 | 40.58740 | 33.73924 | 37070 ft | 516 kts | 51° |
| 2026-04-27 16:54 | 40.63038 | 33.81491 | 37073 ft | 517 kts | 51° |
| 2026-04-27 16:54 | 40.67312 | 33.89045 | 37073 ft | 518 kts | 51° |
| 2026-04-27 16:55 | 40.71625 | 33.96679 | 37074 ft | 519 kts | 51° |
| 2026-04-27 16:55 | 40.75905 | 34.04260 | 37073 ft | 519 kts | 51° |
| 2026-04-27 16:56 | 40.80207 | 34.11916 | 37079 ft | 520 kts | 51° |
| 2026-04-27 16:56 | 40.84497 | 34.19567 | 37111 ft | 519 kts | 51° |
| 2026-04-27 16:57 | 40.88768 | 34.27205 | 37137 ft | 518 kts | 51° |
| 2026-04-27 16:57 | 40.93025 | 34.34833 | 37159 ft | 518 kts | 51° |
| 2026-04-27 16:58 | 40.97277 | 34.42464 | 37154 ft | 519 kts | 51° |
| 2026-04-27 16:58 | 41.01566 | 34.50160 | 37153 ft | 519 kts | 51° |
| 2026-04-27 16:59 | 41.05857 | 34.57836 | 37153 ft | 522 kts | 52° |
| 2026-04-27 16:59 | 41.10187 | 34.65571 | 37153 ft | 525 kts | 53° |
| 2026-04-27 17:00 | 41.16685 | 34.77261 | 37154 ft | 529 kts | 53° |
| 2026-04-27 17:01 | 41.20999 | 34.85121 | 37154 ft | 528 kts | 53° |
| 2026-04-27 17:01 | 41.25299 | 34.93003 | 37152 ft | 527 kts | 53° |
| 2026-04-27 17:02 | 41.29578 | 35.00852 | 37153 ft | 526 kts | 53° |
| 2026-04-27 17:02 | 41.33835 | 35.08687 | 37153 ft | 525 kts | 53° |
| 2026-04-27 17:03 | 41.38099 | 35.16543 | 37153 ft | 524 kts | 53° |
| 2026-04-27 17:03 | 41.42338 | 35.24367 | 37154 ft | 524 kts | 53° |
| 2026-04-27 17:04 | 41.46606 | 35.32255 | 37154 ft | 525 kts | 53° |
| 2026-04-27 17:04 | 41.50840 | 35.40110 | 37154 ft | 526 kts | 53° |
| 2026-04-27 17:05 | 41.55107 | 35.48050 | 37154 ft | 527 kts | 53° |
| 2026-04-27 17:05 | 41.59377 | 35.56002 | 37154 ft | 528 kts | 53° |
| 2026-04-27 17:06 | 41.63644 | 35.63977 | 37164 ft | 528 kts | 53° |
| 2026-04-27 17:06 | 41.67873 | 35.71891 | 37201 ft | 526 kts | 53° |
| 2026-04-27 17:07 | 41.72094 | 35.79818 | 37262 ft | 524 kts | 54° |
| 2026-04-27 17:07 | 41.76310 | 35.87754 | 37296 ft | 524 kts | 54° |
| 2026-04-27 17:08 | 41.80535 | 35.95741 | 37292 ft | 525 kts | 54° |
| 2026-04-27 17:08 | 41.84718 | 36.03667 | 37288 ft | 526 kts | 54° |
| 2026-04-27 17:09 | 41.88938 | 36.11676 | 37289 ft | 526 kts | 53° |
| 2026-04-27 17:09 | 41.93157 | 36.19703 | 37288 ft | 527 kts | 54° |
| 2026-04-27 17:10 | 41.97356 | 36.27721 | 37289 ft | 528 kts | 54° |
| 2026-04-27 17:10 | 42.01564 | 36.35772 | 37289 ft | 528 kts | 54° |
| 2026-04-27 17:11 | 42.05774 | 36.43847 | 37289 ft | 528 kts | 54° |
| 2026-04-27 17:11 | 42.12046 | 36.55929 | 37287 ft | 527 kts | 53° |
| 2026-04-27 17:12 | 42.18316 | 36.68031 | 37287 ft | 525 kts | 54° |
| 2026-04-27 17:13 | 42.22460 | 36.76054 | 37287 ft | 524 kts | 54° |
| 2026-04-27 17:13 | 42.26599 | 36.84114 | 37288 ft | 524 kts | 54° |
| 2026-04-27 17:14 | 42.30747 | 36.92215 | 37289 ft | 525 kts | 54° |
| 2026-04-27 17:14 | 42.34890 | 37.00303 | 37289 ft | 526 kts | 54° |
| 2026-04-27 17:15 | 42.39054 | 37.08439 | 37287 ft | 528 kts | 54° |
| 2026-04-27 17:15 | 42.43240 | 37.16638 | 37289 ft | 533 kts | 55° |
| 2026-04-27 17:16 | 42.47425 | 37.24881 | 37291 ft | 537 kts | 55° |
| 2026-04-27 17:16 | 42.51658 | 37.33244 | 37289 ft | 539 kts | 55° |
| 2026-04-27 17:17 | 42.55863 | 37.41576 | 37288 ft | 537 kts | 55° |
| 2026-04-27 17:17 | 42.60052 | 37.49913 | 37287 ft | 536 kts | 55° |
| 2026-04-27 17:18 | 42.66313 | 37.62378 | 37288 ft | 534 kts | 54° |
| 2026-04-27 17:18 | 42.71294 | 37.69686 | 37288 ft | 528 kts | 36° |
| 2026-04-27 17:19 | 42.77322 | 37.75311 | 37289 ft | 528 kts | 30° |
| 2026-04-27 17:19 | 42.83435 | 37.80765 | 37290 ft | 531 kts | 31° |
| 2026-04-27 17:20 | 42.89578 | 37.86439 | 37288 ft | 532 kts | 31° |
| 2026-04-27 17:20 | 42.95661 | 37.92134 | 37263 ft | 533 kts | 31° |
| 2026-04-27 17:21 | 43.01729 | 37.97871 | 37239 ft | 534 kts | 30° |
| 2026-04-27 17:21 | 43.07787 | 38.03592 | 37230 ft | 533 kts | 30° |
| 2026-04-27 17:22 | 43.13885 | 38.09262 | 37232 ft | 532 kts | 29° |
| 2026-04-27 17:22 | 43.19998 | 38.14940 | 37235 ft | 531 kts | 29° |
| 2026-04-27 17:23 | 43.26076 | 38.20602 | 37234 ft | 530 kts | 29° |
| 2026-04-27 17:23 | 43.32143 | 38.26268 | 37236 ft | 530 kts | 29° |
| 2026-04-27 17:24 | 43.38235 | 38.31996 | 37234 ft | 530 kts | 30° |
| 2026-04-27 17:24 | 43.44246 | 38.37712 | 37233 ft | 530 kts | 30° |
| 2026-04-27 17:25 | 43.50309 | 38.43501 | 37235 ft | 530 kts | 30° |
| 2026-04-27 17:25 | 43.56340 | 38.49271 | 37235 ft | 531 kts | 30° |
| 2026-04-27 17:26 | 43.62414 | 38.55002 | 37235 ft | 531 kts | 29° |
| 2026-04-27 17:26 | 43.68525 | 38.60664 | 37236 ft | 531 kts | 28° |
| 2026-04-27 17:27 | 43.74632 | 38.66335 | 37231 ft | 532 kts | 30° |
| 2026-04-27 17:27 | 43.80750 | 38.72049 | 37234 ft | 531 kts | 29° |
| 2026-04-27 17:28 | 43.86813 | 38.77731 | 37234 ft | 530 kts | 30° |
| 2026-04-27 17:29 | 43.95968 | 38.86327 | 37234 ft | 530 kts | 30° |
| 2026-04-27 17:29 | 44.02010 | 38.92030 | 37233 ft | 530 kts | 29° |
| 2026-04-27 17:30 | 44.08112 | 38.97806 | 37235 ft | 534 kts | 29° |
| 2026-04-27 17:30 | 44.17144 | 39.06961 | 37235 ft | 544 kts | 35° |
| 2026-04-27 17:31 | 44.22951 | 39.13771 | 37235 ft | 549 kts | 36° |
| 2026-04-27 17:31 | 44.28792 | 39.20666 | 37236 ft | 552 kts | 35° |
| 2026-04-27 17:32 | 44.37555 | 39.30955 | 37233 ft | 550 kts | 35° |
| 2026-04-27 17:33 | 44.43368 | 39.37775 | 37233 ft | 548 kts | 35° |
| 2026-04-27 17:33 | 44.49161 | 39.44639 | 37233 ft | 547 kts | 36° |
| 2026-04-27 17:33 | 44.52221 | 39.47753 | 37230 ft | 535 kts | 22° |
| 2026-04-27 17:34 | 44.55558 | 39.49737 | 37234 ft | 523 kts | 9° |
| 2026-04-27 17:34 | 44.62563 | 39.51927 | 37238 ft | 518 kts | 2° |
| 2026-04-27 17:35 | 44.69670 | 39.53826 | 37238 ft | 523 kts | 3° |
| 2026-04-27 17:35 | 44.76721 | 39.55908 | 37233 ft | 523 kts | 4° |
| 2026-04-27 17:36 | 44.83803 | 39.58046 | 37234 ft | 520 kts | 4° |
| 2026-04-27 17:36 | 44.90853 | 39.60164 | 37234 ft | 518 kts | 4° |
| 2026-04-27 17:37 | 44.97850 | 39.62263 | 37234 ft | 516 kts | 4° |
| 2026-04-27 17:37 | 45.04812 | 39.64278 | 37235 ft | 506 kts | 5° |
| 2026-04-27 17:38 | 45.11562 | 39.66148 | 37232 ft | 492 kts | 6° |
| 2026-04-27 17:38 | 45.18203 | 39.67999 | 37231 ft | 484 kts | 7° |
| 2026-04-27 17:39 | 45.24808 | 39.69991 | 37234 ft | 486 kts | 8° |
| 2026-04-27 17:39 | 45.31388 | 39.71997 | 37236 ft | 489 kts | 8° |
| 2026-04-27 17:40 | 45.38040 | 39.74017 | 37235 ft | 491 kts | 8° |
| 2026-04-27 17:40 | 45.44721 | 39.76046 | 37234 ft | 494 kts | 8° |
| 2026-04-27 17:41 | 45.51420 | 39.78090 | 37235 ft | 493 kts | 8° |
| 2026-04-27 17:41 | 45.58075 | 39.80129 | 37234 ft | 492 kts | 8° |
| 2026-04-27 17:42 | 45.64745 | 39.82184 | 37233 ft | 491 kts | 8° |
| 2026-04-27 17:42 | 45.71367 | 39.84225 | 37236 ft | 490 kts | 8° |
| 2026-04-27 17:43 | 45.78026 | 39.86283 | 37235 ft | 490 kts | 8° |
| 2026-04-27 17:43 | 45.84643 | 39.88331 | 37235 ft | 491 kts | 8° |
| 2026-04-27 17:44 | 45.91286 | 39.90390 | 37237 ft | 492 kts | 8° |
| 2026-04-27 17:44 | 45.97968 | 39.92469 | 37235 ft | 493 kts | 8° |
| 2026-04-27 17:45 | 46.04643 | 39.94541 | 37234 ft | 492 kts | 8° |
| 2026-04-27 17:45 | 46.11317 | 39.96632 | 37222 ft | 492 kts | 8° |
| 2026-04-27 17:46 | 46.17987 | 39.98727 | 37170 ft | 492 kts | 8° |
| 2026-04-27 17:46 | 46.24629 | 40.00805 | 37120 ft | 492 kts | 8° |
| 2026-04-27 17:47 | 46.31321 | 40.02911 | 37120 ft | 491 kts | 8° |
| 2026-04-27 17:47 | 46.37927 | 40.04999 | 37125 ft | 490 kts | 7° |
| 2026-04-27 17:48 | 46.44567 | 40.07099 | 37125 ft | 491 kts | 8° |
| 2026-04-27 17:48 | 46.51245 | 40.09212 | 37125 ft | 491 kts | 7° |
| 2026-04-27 17:49 | 46.57950 | 40.10512 | 37126 ft | 487 kts | 0° |
| 2026-04-27 17:49 | 46.64637 | 40.11233 | 37125 ft | 487 kts | 359° |
| 2026-04-27 17:50 | 46.71406 | 40.11990 | 37125 ft | 487 kts | 0° |
| 2026-04-27 17:50 | 46.81473 | 40.13187 | 37127 ft | 486 kts | 0° |
| 2026-04-27 17:51 | 46.88160 | 40.13974 | 37128 ft | 486 kts | 0° |
| 2026-04-27 17:51 | 46.94858 | 40.14747 | 37127 ft | 483 kts | 0° |
| 2026-04-27 17:52 | 47.01515 | 40.15499 | 37126 ft | 476 kts | 0° |
| 2026-04-27 17:52 | 47.06943 | 40.16081 | 37124 ft | 470 kts | 1° |
| 2026-04-27 17:53 | 47.14500 | 40.16961 | 37127 ft | 468 kts | 1° |
| 2026-04-27 17:53 | 47.20992 | 40.17736 | 37126 ft | 470 kts | 1° |
| 2026-04-27 17:54 | 47.27483 | 40.18523 | 37126 ft | 472 kts | 1° |
| 2026-04-27 17:54 | 47.33989 | 40.19310 | 37126 ft | 473 kts | 1° |
| 2026-04-27 17:55 | 47.40536 | 40.20086 | 37127 ft | 474 kts | 1° |
| 2026-04-27 17:55 | 47.47105 | 40.20887 | 37127 ft | 474 kts | 1° |
| 2026-04-27 17:56 | 47.53639 | 40.21681 | 37126 ft | 473 kts | 1° |
| 2026-04-27 17:56 | 47.60165 | 40.22472 | 37127 ft | 473 kts | 1° |
| 2026-04-27 17:57 | 47.66691 | 40.23270 | 37127 ft | 473 kts | 1° |
| 2026-04-27 17:57 | 47.73189 | 40.24059 | 37126 ft | 472 kts | 1° |
| 2026-04-27 17:58 | 47.79709 | 40.24858 | 37126 ft | 472 kts | 1° |
| 2026-04-27 17:58 | 47.86259 | 40.25666 | 37126 ft | 472 kts | 1° |
| 2026-04-27 17:59 | 47.92764 | 40.26471 | 37125 ft | 471 kts | 1° |
| 2026-04-27 17:59 | 47.99251 | 40.27267 | 37127 ft | 471 kts | 1° |
| 2026-04-27 18:00 | 48.05752 | 40.28077 | 37124 ft | 471 kts | 1° |
| 2026-04-27 18:00 | 48.12295 | 40.28885 | 37127 ft | 471 kts | 1° |
| 2026-04-27 18:01 | 48.18772 | 40.29689 | 37125 ft | 471 kts | 1° |
| 2026-04-27 18:01 | 48.25294 | 40.30504 | 37126 ft | 471 kts | 1° |
| 2026-04-27 18:02 | 48.31820 | 40.31323 | 37125 ft | 472 kts | 1° |
| 2026-04-27 18:02 | 48.38300 | 40.32127 | 37127 ft | 472 kts | 1° |
| 2026-04-27 18:03 | 48.44844 | 40.32960 | 37125 ft | 472 kts | 1° |
| 2026-04-27 18:03 | 48.51352 | 40.33773 | 37126 ft | 472 kts | 1° |
| 2026-04-27 18:04 | 48.57892 | 40.34604 | 37126 ft | 472 kts | 1° |
| 2026-04-27 18:04 | 48.64404 | 40.35426 | 37126 ft | 472 kts | 1° |
| 2026-04-27 18:05 | 48.70913 | 40.36249 | 37127 ft | 472 kts | 1° |
| 2026-04-27 18:05 | 48.77450 | 40.37084 | 37126 ft | 473 kts | 1° |
| 2026-04-27 18:06 | 48.83983 | 40.37926 | 37127 ft | 473 kts | 1° |
| 2026-04-27 18:06 | 48.90504 | 40.38749 | 37125 ft | 473 kts | 1° |
| 2026-04-27 18:07 | 48.97019 | 40.39588 | 37126 ft | 473 kts | 1° |
| 2026-04-27 18:07 | 49.03560 | 40.40412 | 37128 ft | 469 kts | 1° |
| 2026-04-27 18:08 | 49.09961 | 40.41187 | 37125 ft | 462 kts | 2° |
| 2026-04-27 18:08 | 49.16296 | 40.41938 | 37124 ft | 455 kts | 2° |
| 2026-04-27 18:09 | 49.22584 | 40.42736 | 37125 ft | 454 kts | 2° |
| 2026-04-27 18:09 | 49.28861 | 40.43555 | 37127 ft | 456 kts | 2° |
| 2026-04-27 18:10 | 49.35144 | 40.44374 | 37127 ft | 458 kts | 2° |
| 2026-04-27 18:10 | 49.41505 | 40.45200 | 37128 ft | 460 kts | 2° |
| 2026-04-27 18:11 | 49.47839 | 40.46036 | 37127 ft | 461 kts | 2° |
| 2026-04-27 18:11 | 49.54202 | 40.46812 | 37126 ft | 460 kts | 1° |
| 2026-04-27 18:12 | 49.60580 | 40.47254 | 37125 ft | 458 kts | 0° |
| 2026-04-27 18:12 | 49.66877 | 40.47657 | 37126 ft | 456 kts | 0° |
| 2026-04-27 18:13 | 49.73186 | 40.48083 | 37125 ft | 455 kts | 0° |
| 2026-04-27 18:13 | 49.79507 | 40.48513 | 37084 ft | 457 kts | 0° |
| 2026-04-27 18:14 | 49.85838 | 40.48942 | 36932 ft | 461 kts | 0° |
| 2026-04-27 18:14 | 49.92245 | 40.49383 | 36794 ft | 460 kts | 0° |
| 2026-04-27 18:15 | 49.98573 | 40.49827 | 36782 ft | 455 kts | 0° |
| 2026-04-27 18:15 | 50.04841 | 40.50308 | 36800 ft | 454 kts | 3° |
| 2026-04-27 18:16 | 50.11031 | 40.52477 | 36805 ft | 460 kts | 14° |
| 2026-04-27 18:16 | 50.17099 | 40.55602 | 36804 ft | 463 kts | 15° |
| 2026-04-27 18:17 | 50.23227 | 40.58702 | 36802 ft | 464 kts | 14° |
| 2026-04-27 18:17 | 50.29362 | 40.61745 | 36802 ft | 464 kts | 14° |
| 2026-04-27 18:18 | 50.35461 | 40.64783 | 36801 ft | 462 kts | 14° |
| 2026-04-27 18:18 | 50.41564 | 40.67837 | 36801 ft | 461 kts | 15° |
| 2026-04-27 18:19 | 50.47642 | 40.70885 | 36802 ft | 460 kts | 15° |
| 2026-04-27 18:19 | 50.53697 | 40.73932 | 36802 ft | 460 kts | 15° |
| 2026-04-27 18:20 | 50.59772 | 40.76992 | 36802 ft | 460 kts | 15° |
| 2026-04-27 18:20 | 50.65828 | 40.80059 | 36802 ft | 460 kts | 15° |
| 2026-04-27 18:21 | 50.71927 | 40.83151 | 36802 ft | 461 kts | 15° |
| 2026-04-27 18:21 | 50.77996 | 40.86243 | 36802 ft | 461 kts | 15° |
| 2026-04-27 18:22 | 50.84089 | 40.89253 | 36800 ft | 459 kts | 11° |
| 2026-04-27 18:22 | 50.87224 | 40.89847 | 36802 ft | 454 kts | 359° |
| 2026-04-27 18:22 | 50.90332 | 40.89529 | 36803 ft | 452 kts | 351° |
| 2026-04-27 18:23 | 50.96502 | 40.87834 | 36803 ft | 451 kts | 349° |
| 2026-04-27 18:23 | 51.02651 | 40.86112 | 36802 ft | 449 kts | 350° |
| 2026-04-27 18:24 | 51.08769 | 40.84531 | 36800 ft | 446 kts | 351° |
| 2026-04-27 18:24 | 51.14843 | 40.82993 | 36802 ft | 444 kts | 351° |
| 2026-04-27 18:25 | 51.20914 | 40.81453 | 36802 ft | 445 kts | 351° |
| 2026-04-27 18:25 | 51.27042 | 40.79895 | 36802 ft | 447 kts | 351° |
| 2026-04-27 18:26 | 51.33145 | 40.78342 | 36802 ft | 448 kts | 351° |
| 2026-04-27 18:26 | 51.39301 | 40.76773 | 36803 ft | 450 kts | 351° |
| 2026-04-27 18:27 | 51.45455 | 40.75199 | 36802 ft | 449 kts | 351° |
| 2026-04-27 18:27 | 51.51573 | 40.73626 | 36802 ft | 448 kts | 351° |
| 2026-04-27 18:28 | 51.57733 | 40.72038 | 36801 ft | 447 kts | 351° |
| 2026-04-27 18:28 | 51.63812 | 40.70474 | 36801 ft | 446 kts | 351° |
| 2026-04-27 18:29 | 51.69924 | 40.68892 | 36797 ft | 446 kts | 351° |
| 2026-04-27 18:29 | 51.76012 | 40.67304 | 36750 ft | 446 kts | 351° |
| 2026-04-27 18:30 | 51.82120 | 40.65709 | 36706 ft | 446 kts | 351° |
| 2026-04-27 18:30 | 51.88214 | 40.64125 | 36684 ft | 446 kts | 351° |
| 2026-04-27 18:31 | 51.94319 | 40.62529 | 36693 ft | 445 kts | 351° |
| 2026-04-27 18:31 | 52.00405 | 40.60934 | 36694 ft | 445 kts | 351° |
| 2026-04-27 18:32 | 52.06499 | 40.59325 | 36694 ft | 445 kts | 351° |
| 2026-04-27 18:32 | 52.12601 | 40.57715 | 36696 ft | 446 kts | 351° |
| 2026-04-27 18:33 | 52.18706 | 40.56099 | 36695 ft | 448 kts | 351° |
| 2026-04-27 18:33 | 52.24850 | 40.54470 | 36694 ft | 449 kts | 351° |
| 2026-04-27 18:34 | 52.31004 | 40.52831 | 36694 ft | 449 kts | 351° |
| 2026-04-27 18:34 | 52.37147 | 40.51189 | 36694 ft | 449 kts | 351° |
| 2026-04-27 18:35 | 52.43284 | 40.49546 | 36693 ft | 449 kts | 351° |
| 2026-04-27 18:35 | 52.49358 | 40.47536 | 36694 ft | 448 kts | 342° |
| 2026-04-27 18:36 | 52.54930 | 40.43102 | 36693 ft | 448 kts | 332° |
| 2026-04-27 18:36 | 52.60296 | 40.37878 | 36694 ft | 448 kts | 331° |
| 2026-04-27 18:37 | 52.65664 | 40.32785 | 36694 ft | 448 kts | 331° |
| 2026-04-27 18:37 | 52.71076 | 40.27700 | 36694 ft | 448 kts | 331° |
| 2026-04-27 18:38 | 52.76496 | 40.22627 | 36693 ft | 448 kts | 332° |
| 2026-04-27 18:38 | 52.81877 | 40.17543 | 36694 ft | 448 kts | 331° |
| 2026-04-27 18:39 | 52.87257 | 40.12396 | 36693 ft | 448 kts | 331° |
| 2026-04-27 18:39 | 52.92625 | 40.07293 | 36694 ft | 448 kts | 331° |
| 2026-04-27 18:40 | 52.98047 | 40.02121 | 36693 ft | 448 kts | 331° |
| 2026-04-27 18:40 | 53.03416 | 39.97002 | 36694 ft | 448 kts | 331° |
| 2026-04-27 18:41 | 53.08792 | 39.91874 | 36694 ft | 448 kts | 331° |
| 2026-04-27 18:41 | 53.14197 | 39.86702 | 36696 ft | 449 kts | 331° |
| 2026-04-27 18:42 | 53.18678 | 39.82391 | 36694 ft | 449 kts | 331° |
| 2026-04-27 18:42 | 53.24982 | 39.76292 | 36694 ft | 450 kts | 331° |
| 2026-04-27 18:43 | 53.30387 | 39.71042 | 36694 ft | 450 kts | 331° |
| 2026-04-27 18:43 | 53.35763 | 39.65808 | 36694 ft | 451 kts | 331° |
| 2026-04-27 18:44 | 53.41176 | 39.60564 | 36694 ft | 451 kts | 332° |
| 2026-04-27 18:44 | 53.46742 | 39.55789 | 36694 ft | 451 kts | 334° |
| 2026-04-27 18:45 | 53.52325 | 39.51123 | 36694 ft | 451 kts | 334° |
| 2026-04-27 18:45 | 53.57918 | 39.46388 | 36694 ft | 451 kts | 334° |
| 2026-04-27 18:46 | 53.63488 | 39.41645 | 36694 ft | 451 kts | 334° |
| 2026-04-27 18:46 | 53.69110 | 39.36839 | 36573 ft | 454 kts | 334° |
| 2026-04-27 18:47 | 53.71917 | 39.34433 | 36349 ft | 454 kts | 333° |
| 2026-04-27 18:47 | 53.74713 | 39.32030 | 36126 ft | 451 kts | 333° |
| 2026-04-27 18:47 | 53.77488 | 39.29644 | 35901 ft | 448 kts | 333° |
| 2026-04-27 18:47 | 53.80244 | 39.27274 | 35596 ft | 447 kts | 333° |
| 2026-04-27 18:48 | 53.82990 | 39.24909 | 35007 ft | 448 kts | 333° |
| 2026-04-27 18:48 | 53.85735 | 39.22541 | 34412 ft | 445 kts | 333° |
| 2026-04-27 18:48 | 53.88488 | 39.20162 | 33809 ft | 440 kts | 333° |
| 2026-04-27 18:48 | 53.91174 | 39.17834 | 33213 ft | 435 kts | 333° |
| 2026-04-27 18:49 | 53.93826 | 39.15537 | 32607 ft | 431 kts | 333° |
| 2026-04-27 18:49 | 53.96484 | 39.13232 | 31882 ft | 429 kts | 333° |
| 2026-04-27 18:49 | 53.99149 | 39.10917 | 31150 ft | 428 kts | 333° |
| 2026-04-27 18:49 | 54.01767 | 39.08644 | 30427 ft | 426 kts | 333° |
| 2026-04-27 18:50 | 54.04396 | 39.06360 | 29632 ft | 426 kts | 333° |
| 2026-04-27 18:50 | 54.07018 | 39.04083 | 28987 ft | 420 kts | 333° |
| 2026-04-27 18:50 | 54.09571 | 39.01864 | 28090 ft | 411 kts | 333° |
| 2026-04-27 18:50 | 54.12053 | 38.99702 | 27319 ft | 400 kts | 333° |
| 2026-04-27 18:51 | 54.14513 | 38.97559 | 26119 ft | 397 kts | 333° |
| 2026-04-27 18:51 | 54.16926 | 38.95453 | 24858 ft | 394 kts | 333° |
| 2026-04-27 18:51 | 54.19382 | 38.93305 | 23558 ft | 404 kts | 333° |
| 2026-04-27 18:51 | 54.21833 | 38.91160 | 22916 ft | 401 kts | 333° |
| 2026-04-27 18:52 | 54.24305 | 38.89028 | 22455 ft | 394 kts | 333° |
| 2026-04-27 18:52 | 54.26714 | 38.86986 | 21998 ft | 387 kts | 333° |
| 2026-04-27 18:52 | 54.29112 | 38.84958 | 21506 ft | 382 kts | 333° |
| 2026-04-27 18:53 | 54.33815 | 38.80962 | 20360 ft | 377 kts | 333° |
| 2026-04-27 18:53 | 54.36142 | 38.78977 | 19774 ft | 375 kts | 333° |
| 2026-04-27 18:53 | 54.38465 | 38.76993 | 19221 ft | 372 kts | 333° |
| 2026-04-27 18:53 | 54.40762 | 38.75028 | 18690 ft | 369 kts | 333° |
| 2026-04-27 18:54 | 54.43024 | 38.73092 | 18170 ft | 365 kts | 333° |
| 2026-04-27 18:54 | 54.45291 | 38.71148 | 17638 ft | 362 kts | 333° |
| 2026-04-27 18:54 | 54.47524 | 38.69231 | 17106 ft | 360 kts | 333° |
| 2026-04-27 18:54 | 54.49754 | 38.67313 | 16577 ft | 357 kts | 333° |
| 2026-04-27 18:55 | 54.51951 | 38.65420 | 16053 ft | 355 kts | 333° |
| 2026-04-27 18:55 | 54.54132 | 38.63539 | 15539 ft | 352 kts | 333° |
| 2026-04-27 18:55 | 54.56325 | 38.61645 | 15021 ft | 349 kts | 333° |
| 2026-04-27 18:55 | 54.58481 | 38.59781 | 14516 ft | 347 kts | 333° |
| 2026-04-27 18:56 | 54.60615 | 38.57933 | 14015 ft | 344 kts | 333° |
| 2026-04-27 18:56 | 54.62717 | 38.56111 | 13520 ft | 342 kts | 333° |
| 2026-04-27 18:56 | 54.64848 | 38.54261 | 13042 ft | 339 kts | 333° |
| 2026-04-27 18:56 | 54.66924 | 38.52457 | 12677 ft | 333 kts | 333° |
| 2026-04-27 18:57 | 54.68948 | 38.50696 | 12330 ft | 327 kts | 333° |
| 2026-04-27 18:57 | 54.70965 | 38.48940 | 12019 ft | 320 kts | 333° |
| 2026-04-27 18:57 | 54.72933 | 38.47228 | 11741 ft | 311 kts | 333° |
| 2026-04-27 18:57 | 54.74768 | 38.45644 | 11452 ft | 287 kts | 333° |
| 2026-04-27 18:58 | 54.76536 | 38.44125 | 11183 ft | 278 kts | 333° |
| 2026-04-27 18:58 | 54.77666 | 38.43152 | 11021 ft | 275 kts | 333° |
| 2026-04-27 18:58 | 54.79928 | 38.41204 | 10619 ft | 271 kts | 333° |
| 2026-04-27 18:58 | 54.81599 | 38.39767 | 10286 ft | 270 kts | 333° |
| 2026-04-27 18:59 | 54.83279 | 38.38320 | 9966 ft | 269 kts | 333° |
| 2026-04-27 18:59 | 54.84950 | 38.36874 | 9623 ft | 268 kts | 332° |
| 2026-04-27 18:59 | 54.86597 | 38.35438 | 9284 ft | 266 kts | 332° |
| 2026-04-27 18:59 | 54.88237 | 38.34008 | 8944 ft | 265 kts | 331° |
| 2026-04-27 19:00 | 54.89878 | 38.32577 | 8616 ft | 263 kts | 331° |
| 2026-04-27 19:00 | 54.91517 | 38.31156 | 8259 ft | 263 kts | 331° |
| 2026-04-27 19:00 | 54.93140 | 38.29742 | 7975 ft | 260 kts | 331° |
| 2026-04-27 19:00 | 54.94751 | 38.28326 | 7618 ft | 260 kts | 330° |
| 2026-04-27 19:01 | 54.96365 | 38.26915 | 7262 ft | 260 kts | 330° |
| 2026-04-27 19:01 | 54.97968 | 38.25476 | 6978 ft | 257 kts | 329° |
| 2026-04-27 19:01 | 54.99546 | 38.24030 | 6670 ft | 255 kts | 330° |
| 2026-04-27 19:01 | 55.01035 | 38.22694 | 6528 ft | 235 kts | 329° |
| 2026-04-27 19:02 | 55.02471 | 38.21431 | 6388 ft | 227 kts | 330° |
| 2026-04-27 19:02 | 55.03860 | 38.20202 | 6215 ft | 222 kts | 330° |
| 2026-04-27 19:02 | 55.05217 | 38.18999 | 5963 ft | 219 kts | 330° |
| 2026-04-27 19:02 | 55.06574 | 38.17798 | 5615 ft | 219 kts | 329° |
| 2026-04-27 19:03 | 55.07903 | 38.16597 | 5346 ft | 216 kts | 330° |
| 2026-04-27 19:03 | 55.09242 | 38.15411 | 5004 ft | 214 kts | 329° |
| 2026-04-27 19:03 | 55.10570 | 38.14242 | 4610 ft | 215 kts | 329° |
| 2026-04-27 19:03 | 55.11460 | 38.13464 | 4340 ft | 216 kts | 331° |
| 2026-04-27 19:04 | 55.13409 | 38.12499 | 3874 ft | 221 kts | 343° |
| 2026-04-27 19:04 | 55.14900 | 38.11968 | 3593 ft | 221 kts | 346° |
| 2026-04-27 19:04 | 55.16405 | 38.11482 | 3309 ft | 221 kts | 345° |
| 2026-04-27 19:04 | 55.17906 | 38.11011 | 3153 ft | 216 kts | 345° |
| 2026-04-27 19:05 | 55.18336 | 38.10888 | 3101 ft | 214 kts | 346° |